createdAt,value
2023-01-15T00:00:46.909Z,7.5
2023-01-15T00:01:47.175Z,7.5
2023-01-15T00:02:47.588Z,7.5
2023-01-15T00:03:47.998Z,7.5
2023-01-15T00:04:48.268Z,7.7
2023-01-15T00:05:48.455Z,7.7
2023-01-15T00:06:48.634Z,7.7
2023-01-15T00:07:48.903Z,7.7
2023-01-15T00:08:49.131Z,7.7
2023-01-15T00:09:49.349Z,7.7
2023-01-15T00:10:49.566Z,7.7
2023-01-15T00:11:49.770Z,7.7
2023-01-15T00:12:50.014Z,7.7
2023-01-15T00:13:50.195Z,7.9
2023-01-15T00:14:50.446Z,7.9
2023-01-15T00:15:50.685Z,7.9
2023-01-15T00:16:50.987Z,7.9
2023-01-15T00:17:51.178Z,7.9
2023-01-15T00:18:51.356Z,7.9
2023-01-15T00:19:51.523Z,7.9
2023-01-15T00:20:51.693Z,7.9
2023-01-15T00:21:51.870Z,7.9
2023-01-15T00:22:52.055Z,7.9
2023-01-15T00:23:52.236Z,8.3
2023-01-15T00:24:52.396Z,8.3
2023-01-15T00:25:52.570Z,8.3
2023-01-15T00:26:52.737Z,8.3
2023-01-15T00:27:52.915Z,8.3
2023-01-15T00:28:53.109Z,8.3
2023-01-15T00:29:53.288Z,8.3
2023-01-15T00:30:53.504Z,8.3
2023-01-15T00:31:53.723Z,8.3
2023-01-15T00:32:53.912Z,8.3
2023-01-15T00:33:54.089Z,8.6
2023-01-15T00:34:54.251Z,8.6
2023-01-15T00:35:54.442Z,8.6
2023-01-15T00:36:54.634Z,8.6
2023-01-15T00:37:54.830Z,8.6
2023-01-15T00:38:55.003Z,8.6
2023-01-15T00:39:55.189Z,8.6
2023-01-15T00:40:55.371Z,8.6
2023-01-15T00:41:55.578Z,8.6
2023-01-15T00:42:55.753Z,8.6
2023-01-15T00:43:55.924Z,8.89
2023-01-15T00:44:56.116Z,8.89
2023-01-15T00:45:56.299Z,8.89
2023-01-15T00:46:56.522Z,8.89
2023-01-15T00:47:56.721Z,8.89
2023-01-15T00:48:56.891Z,8.89
2023-01-15T00:49:57.060Z,8.89
2023-01-15T00:50:57.244Z,8.89
2023-01-15T00:51:57.433Z,8.89
2023-01-15T00:52:57.620Z,8.89
2023-01-15T00:53:57.815Z,9.2
2023-01-15T00:54:57.986Z,9.2
2023-01-15T00:55:58.190Z,9.2
2023-01-15T00:56:58.352Z,9.2
2023-01-15T00:57:58.529Z,9.2
2023-01-15T00:58:58.705Z,9.2
2023-01-15T00:59:58.876Z,9.2
2023-01-15T01:00:59.325Z,9.2
2023-01-15T01:02:00.111Z,9.2
2023-01-15T01:03:00.672Z,9.2
2023-01-15T01:04:01.109Z,9.39
2023-01-15T01:05:01.277Z,9.39
2023-01-15T01:06:01.495Z,9.39
2023-01-15T01:07:01.697Z,9.39
2023-01-15T01:08:01.897Z,9.39
2023-01-15T01:09:02.094Z,9.39
2023-01-15T01:10:02.327Z,9.39
2023-01-15T01:11:02.548Z,9.39
2023-01-15T01:12:02.746Z,9.39
2023-01-15T01:13:02.906Z,9.39
2023-01-15T01:14:03.093Z,9.6
2023-01-15T01:15:03.269Z,9.6
2023-01-15T01:16:03.514Z,9.6
2023-01-15T01:17:03.711Z,9.6
2023-01-15T01:18:03.869Z,9.6
2023-01-15T01:19:04.072Z,9.6
2023-01-15T01:20:04.240Z,9.6
2023-01-15T01:21:04.418Z,9.6
2023-01-15T01:22:04.592Z,9.6
2023-01-15T01:23:04.766Z,9.6
2023-01-15T01:24:04.940Z,9.8
2023-01-15T01:25:05.122Z,9.8
2023-01-15T01:26:05.296Z,9.8
2023-01-15T01:27:05.496Z,9.8
2023-01-15T01:28:05.665Z,9.8
2023-01-15T01:29:05.829Z,9.8
2023-01-15T01:30:06.019Z,9.8
2023-01-15T01:31:06.260Z,9.8
2023-01-15T01:32:06.498Z,9.8
2023-01-15T01:33:06.668Z,9.8
2023-01-15T01:34:06.900Z,9.89
2023-01-15T01:35:07.069Z,9.89
2023-01-15T01:36:07.243Z,9.89
2023-01-15T01:37:07.420Z,9.89
2023-01-15T01:38:07.599Z,9.89
2023-01-15T01:39:07.774Z,9.89
2023-01-15T01:40:07.985Z,9.89
2023-01-15T01:41:08.163Z,9.89
2023-01-15T01:42:08.339Z,9.89
2023-01-15T01:43:08.528Z,9.89
2023-01-15T01:44:08.707Z,10
2023-01-15T01:45:08.899Z,10
2023-01-15T01:46:09.096Z,10
2023-01-15T01:47:09.272Z,10
2023-01-15T01:48:09.461Z,10
2023-01-15T01:49:09.662Z,10
2023-01-15T01:50:09.881Z,10
2023-01-15T01:51:10.071Z,10
2023-01-15T01:52:10.243Z,10
2023-01-15T01:53:10.416Z,10
2023-01-15T01:54:10.588Z,10
2023-01-15T01:55:10.768Z,10
2023-01-15T01:56:11.020Z,10
2023-01-15T01:57:11.191Z,10
2023-01-15T01:58:11.355Z,10
2023-01-15T01:59:11.532Z,10
2023-01-15T02:00:11.716Z,10
2023-01-15T02:01:12.150Z,10
2023-01-15T02:02:12.842Z,10
2023-01-15T02:03:13.246Z,10
2023-01-15T02:04:13.428Z,10
2023-01-15T02:05:13.623Z,10
2023-01-15T02:06:13.803Z,10
2023-01-15T02:07:13.973Z,10
2023-01-15T02:08:14.149Z,10
2023-01-15T02:09:14.342Z,10
2023-01-15T02:10:14.525Z,10
2023-01-15T02:11:14.715Z,10
2023-01-15T02:12:14.886Z,10
2023-01-15T02:13:15.060Z,10
2023-01-15T02:14:15.242Z,10
2023-01-15T02:15:15.427Z,10
2023-01-15T02:16:15.733Z,10
2023-01-15T02:17:15.977Z,10
2023-01-15T02:18:16.168Z,10
2023-01-15T02:19:16.349Z,10
2023-01-15T02:20:16.536Z,10
2023-01-15T02:21:16.705Z,10
2023-01-15T02:22:16.882Z,10
2023-01-15T02:23:17.071Z,10
2023-01-15T02:24:17.257Z,9.89
2023-01-15T02:25:17.434Z,9.89
2023-01-15T02:26:17.609Z,9.89
2023-01-15T02:27:17.795Z,9.89
2023-01-15T02:28:17.998Z,9.89
2023-01-15T02:29:18.168Z,9.89
2023-01-15T02:30:18.357Z,9.89
2023-01-15T02:31:18.606Z,9.89
2023-01-15T02:32:18.844Z,9.89
2023-01-15T02:33:19.013Z,9.89
2023-01-15T02:34:19.207Z,9.8
2023-01-15T02:35:19.377Z,9.8
2023-01-15T02:36:19.555Z,9.8
2023-01-15T02:37:19.723Z,9.8
2023-01-15T02:38:19.892Z,9.8
2023-01-15T02:39:20.072Z,9.8
2023-01-15T02:40:20.230Z,9.8
2023-01-15T02:41:20.399Z,9.8
2023-01-15T02:42:20.577Z,9.8
2023-01-15T02:43:20.778Z,9.8
2023-01-15T02:44:20.955Z,9.7
2023-01-15T02:45:21.125Z,9.7
2023-01-15T02:46:21.297Z,9.7
2023-01-15T02:47:21.474Z,9.7
2023-01-15T02:48:21.647Z,9.7
2023-01-15T02:49:21.821Z,9.7
2023-01-15T02:50:22.000Z,9.7
2023-01-15T02:51:22.195Z,9.7
2023-01-15T02:52:22.397Z,9.7
2023-01-15T02:53:22.598Z,9.7
2023-01-15T02:54:22.770Z,9.7
2023-01-15T02:55:22.943Z,9.7
2023-01-15T02:56:23.117Z,9.7
2023-01-15T02:57:23.285Z,9.7
2023-01-15T02:58:23.470Z,9.7
2023-01-15T02:59:23.665Z,9.7
2023-01-15T03:00:23.850Z,9.7
2023-01-15T03:01:24.269Z,9.7
2023-01-15T03:02:24.690Z,9.7
2023-01-15T03:03:24.968Z,9.7
2023-01-15T03:04:25.157Z,9.5
2023-01-15T03:05:25.343Z,9.5
2023-01-15T03:06:25.529Z,9.5
2023-01-15T03:07:25.700Z,9.5
2023-01-15T03:08:25.889Z,9.5
2023-01-15T03:09:26.079Z,9.5
2023-01-15T03:10:26.261Z,9.5
2023-01-15T03:11:26.429Z,9.5
2023-01-15T03:12:26.617Z,9.5
2023-01-15T03:13:26.788Z,9.5
2023-01-15T03:14:26.966Z,9.5
2023-01-15T03:15:27.137Z,9.5
2023-01-15T03:16:27.390Z,9.5
2023-01-15T03:17:27.610Z,9.5
2023-01-15T03:18:27.783Z,9.5
2023-01-15T03:19:28.009Z,9.5
2023-01-15T03:20:28.198Z,9.5
2023-01-15T03:21:28.363Z,9.5
2023-01-15T03:22:28.545Z,9.5
2023-01-15T03:23:28.716Z,9.5
2023-01-15T03:24:28.896Z,9.39
2023-01-15T03:25:29.083Z,9.39
2023-01-15T03:26:29.254Z,9.39
2023-01-15T03:27:29.442Z,9.39
2023-01-15T03:28:29.616Z,9.39
2023-01-15T03:29:29.787Z,9.39
2023-01-15T03:30:30.156Z,9.39
2023-01-15T03:31:30.468Z,9.39
2023-01-15T03:32:30.646Z,9.39
2023-01-15T03:33:30.814Z,9.39
2023-01-15T03:34:30.990Z,9.3
2023-01-15T03:35:31.158Z,9.3
2023-01-15T03:36:31.327Z,9.3
2023-01-15T03:37:31.510Z,9.3
2023-01-15T03:38:31.700Z,9.3
2023-01-15T03:39:31.889Z,9.3
2023-01-15T03:40:32.064Z,9.3
2023-01-15T03:41:32.232Z,9.3
2023-01-15T03:42:32.400Z,9.3
2023-01-15T03:43:32.570Z,9.3
2023-01-15T03:44:32.738Z,9.3
2023-01-15T03:45:32.922Z,9.3
2023-01-15T03:46:33.094Z,9.3
2023-01-15T03:47:33.261Z,9.3
2023-01-15T03:48:33.432Z,9.3
2023-01-15T03:49:33.595Z,9.3
2023-01-15T03:50:33.759Z,9.3
2023-01-15T03:51:33.954Z,9.3
2023-01-15T03:52:34.127Z,9.3
2023-01-15T03:53:34.307Z,9.3
2023-01-15T03:54:34.501Z,9.2
2023-01-15T03:55:34.679Z,9.2
2023-01-15T03:56:34.856Z,9.2
2023-01-15T03:57:35.047Z,9.2
2023-01-15T03:58:35.225Z,9.2
2023-01-15T03:59:35.392Z,9.2
2023-01-15T04:00:35.569Z,9.2
2023-01-15T04:01:35.971Z,9.2
2023-01-15T04:02:36.303Z,9.2
2023-01-15T04:03:36.473Z,9.2
2023-01-15T04:04:36.826Z,9.1
2023-01-15T04:05:37.099Z,9.1
2023-01-15T04:06:37.282Z,9.1
2023-01-15T04:07:37.459Z,9.1
2023-01-15T04:08:37.641Z,9.1
2023-01-15T04:09:37.827Z,9.1
2023-01-15T04:10:38.021Z,9.1
2023-01-15T04:11:38.209Z,9.1
2023-01-15T04:12:38.398Z,9.1
2023-01-15T04:13:38.589Z,9.1
2023-01-15T04:14:38.779Z,9.1
2023-01-15T04:15:39.045Z,9.1
2023-01-15T04:16:39.275Z,9.1
2023-01-15T04:17:39.459Z,9.1
2023-01-15T04:18:39.636Z,9.1
2023-01-15T04:19:39.803Z,9.1
2023-01-15T04:20:39.973Z,9.1
2023-01-15T04:21:40.146Z,9.1
2023-01-15T04:22:40.332Z,9.1
2023-01-15T04:23:40.502Z,9.1
2023-01-15T04:24:40.681Z,9
2023-01-15T04:25:40.858Z,9
2023-01-15T04:26:41.039Z,9
2023-01-15T04:27:41.204Z,9
2023-01-15T04:28:41.379Z,9
2023-01-15T04:29:41.558Z,9
2023-01-15T04:30:41.818Z,9
2023-01-15T04:31:42.020Z,9
2023-01-15T04:32:42.197Z,9
2023-01-15T04:33:42.367Z,9
2023-01-15T04:34:42.537Z,9
2023-01-15T04:35:42.740Z,9
2023-01-15T04:36:42.907Z,9
2023-01-15T04:37:43.081Z,9
2023-01-15T04:38:43.267Z,9
2023-01-15T04:39:43.457Z,9
2023-01-15T04:40:43.626Z,9
2023-01-15T04:41:43.791Z,9
2023-01-15T04:42:43.967Z,9
2023-01-15T04:43:44.138Z,9
2023-01-15T04:44:44.322Z,9
2023-01-15T04:45:44.522Z,9
2023-01-15T04:46:44.734Z,9
2023-01-15T04:47:44.908Z,9
2023-01-15T04:48:45.075Z,9
2023-01-15T04:49:45.250Z,9
2023-01-15T04:50:45.417Z,9
2023-01-15T04:51:45.591Z,9
2023-01-15T04:52:45.773Z,9
2023-01-15T04:53:45.968Z,9
2023-01-15T04:54:46.153Z,9.1
2023-01-15T04:55:46.353Z,9.1
2023-01-15T04:56:46.532Z,9.1
2023-01-15T04:57:46.720Z,9.1
2023-01-15T04:58:46.918Z,9.1
2023-01-15T04:59:47.098Z,9.1
2023-01-15T05:00:47.269Z,9.1
2023-01-15T05:02:05.876Z,9.1
2023-01-15T05:03:07.251Z,9.1
2023-01-15T05:04:07.570Z,9.1
2023-01-15T05:05:07.855Z,9.1
2023-01-15T05:06:08.026Z,9.1
2023-01-15T05:07:08.206Z,9.1
2023-01-15T05:08:08.397Z,9.1
2023-01-15T05:09:08.575Z,9.1
2023-01-15T05:10:08.740Z,9.1
2023-01-15T05:11:08.938Z,9.1
2023-01-15T05:12:09.119Z,9.1
2023-01-15T05:13:09.302Z,9.1
2023-01-15T05:14:09.486Z,9.1
2023-01-15T05:15:09.659Z,9.1
2023-01-15T05:16:09.961Z,9.1
2023-01-15T05:17:10.473Z,9.1
2023-01-15T05:18:10.649Z,9.1
2023-01-15T05:19:10.832Z,9.1
2023-01-15T05:20:11.024Z,9.1
2023-01-15T05:21:11.220Z,9.1
2023-01-15T05:22:11.401Z,9.1
2023-01-15T05:23:11.629Z,9.1
2023-01-15T05:24:11.815Z,9.2
2023-01-15T05:25:11.992Z,9.2
2023-01-15T05:26:12.188Z,9.2
2023-01-15T05:27:12.372Z,9.2
2023-01-15T05:28:12.547Z,9.2
2023-01-15T05:29:12.751Z,9.2
2023-01-15T05:30:12.962Z,9.2
2023-01-15T05:31:13.276Z,9.2
2023-01-15T05:32:13.490Z,9.2
2023-01-15T05:33:13.687Z,9.2
2023-01-15T05:34:13.887Z,9.3
2023-01-15T05:35:14.073Z,9.3
2023-01-15T05:36:14.259Z,9.3
2023-01-15T05:37:14.437Z,9.3
2023-01-15T05:38:14.601Z,9.3
2023-01-15T05:39:14.785Z,9.3
2023-01-15T05:40:15.028Z,9.3
2023-01-15T05:41:15.216Z,9.3
2023-01-15T05:42:15.407Z,9.3
2023-01-15T05:43:15.577Z,9.3
2023-01-15T05:44:15.836Z,9.3
2023-01-15T05:45:16.046Z,9.3
2023-01-15T05:46:16.302Z,9.3
2023-01-15T05:47:16.534Z,9.3
2023-01-15T05:48:16.717Z,9.3
2023-01-15T05:49:16.904Z,9.3
2023-01-15T05:50:17.081Z,9.3
2023-01-15T05:51:17.252Z,9.3
2023-01-15T05:52:17.464Z,9.3
2023-01-15T05:53:17.637Z,9.3
2023-01-15T05:54:17.803Z,9.39
2023-01-15T05:55:17.993Z,9.39
2023-01-15T05:56:18.191Z,9.39
2023-01-15T05:57:18.355Z,9.39
2023-01-15T05:58:18.545Z,9.39
2023-01-15T05:59:18.746Z,9.39
2023-01-15T06:00:18.914Z,9.39
2023-01-15T06:01:19.216Z,9.39
2023-01-15T06:02:19.606Z,9.39
2023-01-15T06:03:19.974Z,9.39
2023-01-15T06:04:20.282Z,9.5
2023-01-15T06:05:20.478Z,9.5
2023-01-15T06:06:20.656Z,9.5
2023-01-15T06:07:20.824Z,9.5
2023-01-15T06:08:21.032Z,9.5
2023-01-15T06:09:21.205Z,9.5
2023-01-15T06:10:21.369Z,9.5
2023-01-15T06:11:21.532Z,9.5
2023-01-15T06:12:21.701Z,9.5
2023-01-15T06:13:21.870Z,9.5
2023-01-15T06:14:22.071Z,9.7
2023-01-15T06:15:22.253Z,9.7
2023-01-15T06:16:22.592Z,9.7
2023-01-15T06:17:22.919Z,9.7
2023-01-15T06:18:23.093Z,9.7
2023-01-15T06:19:23.260Z,9.7
2023-01-15T06:20:23.477Z,9.7
2023-01-15T06:21:23.647Z,9.7
2023-01-15T06:22:23.841Z,9.7
2023-01-15T06:23:24.014Z,9.7
2023-01-15T06:24:24.186Z,9.8
2023-01-15T06:25:24.360Z,9.8
2023-01-15T06:26:24.549Z,9.8
2023-01-15T06:27:24.755Z,9.8
2023-01-15T06:28:24.925Z,9.8
2023-01-15T06:29:25.116Z,9.8
2023-01-15T06:30:25.284Z,9.8
2023-01-15T06:31:25.570Z,9.8
2023-01-15T06:32:25.864Z,9.8
2023-01-15T06:33:26.036Z,9.8
2023-01-15T06:34:26.210Z,9.89
2023-01-15T06:35:26.384Z,9.89
2023-01-15T06:36:26.572Z,9.89
2023-01-15T06:37:26.746Z,9.89
2023-01-15T06:38:26.920Z,9.89
2023-01-15T06:39:27.099Z,9.89
2023-01-15T06:40:27.282Z,9.89
2023-01-15T06:41:27.449Z,9.89
2023-01-15T06:42:27.625Z,9.89
2023-01-15T06:43:27.793Z,9.89
2023-01-15T06:44:28.433Z,10
2023-01-15T06:45:28.617Z,10
2023-01-15T06:46:28.857Z,10
2023-01-15T06:47:29.096Z,10
2023-01-15T06:48:29.284Z,10
2023-01-15T06:49:29.454Z,10
2023-01-15T06:50:29.623Z,10
2023-01-15T06:51:31.449Z,10
2023-01-15T06:52:31.617Z,10
2023-01-15T06:53:31.805Z,10
2023-01-15T06:54:31.992Z,10.1
2023-01-15T06:55:32.167Z,10.1
2023-01-15T06:56:32.349Z,10.1
2023-01-15T06:57:32.523Z,10.1
2023-01-15T06:58:32.692Z,10.1
2023-01-15T06:59:32.893Z,10.1
2023-01-15T07:00:33.175Z,10.1
2023-01-15T07:01:33.521Z,10.1
2023-01-15T07:02:33.715Z,10.1
2023-01-15T07:03:34.031Z,10.1
2023-01-15T07:04:34.268Z,10.2
2023-01-15T07:05:34.467Z,10.2
2023-01-15T07:06:34.644Z,10.2
2023-01-15T07:07:34.810Z,10.2
2023-01-15T07:08:34.983Z,10.2
2023-01-15T07:09:35.168Z,10.2
2023-01-15T07:10:35.376Z,10.2
2023-01-15T07:11:35.625Z,10.2
2023-01-15T07:12:35.798Z,10.2
2023-01-15T07:13:35.991Z,10.2
2023-01-15T07:14:36.157Z,10.2
2023-01-15T07:15:36.323Z,10.2
2023-01-15T07:16:36.633Z,10.2
2023-01-15T07:17:36.906Z,10.2
2023-01-15T07:18:37.083Z,10.2
2023-01-15T07:19:37.281Z,10.2
2023-01-15T07:20:37.485Z,10.2
2023-01-15T07:21:37.657Z,10.2
2023-01-15T07:22:37.826Z,10.2
2023-01-15T07:23:37.993Z,10.2
2023-01-15T07:24:38.155Z,10.2
2023-01-15T07:25:38.318Z,10.2
2023-01-15T07:26:38.498Z,10.2
2023-01-15T07:27:38.683Z,10.2
2023-01-15T07:28:38.858Z,10.2
2023-01-15T07:29:39.049Z,10.2
2023-01-15T07:30:39.220Z,10.2
2023-01-15T07:31:39.581Z,10.2
2023-01-15T07:32:39.844Z,10.2
2023-01-15T07:33:40.032Z,10.2
2023-01-15T07:34:40.224Z,10.1
2023-01-15T07:35:40.402Z,10.1
2023-01-15T07:36:40.603Z,10.1
2023-01-15T07:37:40.785Z,10.1
2023-01-15T07:38:40.979Z,10.1
2023-01-15T07:39:41.148Z,10.1
2023-01-15T07:40:41.321Z,10.1
2023-01-15T07:41:41.519Z,10.1
2023-01-15T07:42:41.686Z,10.1
2023-01-15T07:43:41.853Z,10.1
2023-01-15T07:44:42.023Z,9.89
2023-01-15T07:45:42.376Z,9.89
2023-01-15T07:46:42.616Z,9.89
2023-01-15T07:47:42.816Z,9.89
2023-01-15T07:48:43.030Z,9.89
2023-01-15T07:49:43.197Z,9.89
2023-01-15T07:50:43.395Z,9.89
2023-01-15T07:51:43.585Z,9.89
2023-01-15T07:52:43.762Z,9.89
2023-01-15T07:53:43.966Z,9.89
2023-01-15T07:54:44.149Z,9.8
2023-01-15T07:55:44.366Z,9.8
2023-01-15T07:56:44.536Z,9.8
2023-01-15T07:57:44.727Z,9.8
2023-01-15T07:58:44.906Z,9.8
2023-01-15T07:59:45.093Z,9.8
2023-01-15T08:00:45.371Z,9.8
2023-01-15T08:01:45.938Z,9.8
2023-01-15T08:02:46.347Z,9.8
2023-01-15T08:03:46.610Z,9.7
2023-01-15T08:04:46.890Z,9.7
2023-01-15T08:05:47.067Z,9.7
2023-01-15T08:06:47.237Z,9.7
2023-01-15T08:07:47.495Z,9.7
2023-01-15T08:08:47.708Z,9.7
2023-01-15T08:09:47.881Z,9.7
2023-01-15T08:10:48.062Z,9.7
2023-01-15T08:11:48.247Z,9.7
2023-01-15T08:12:48.442Z,9.7
2023-01-15T08:13:48.621Z,9.7
2023-01-15T08:14:48.794Z,9.7
2023-01-15T08:15:48.977Z,9.7
2023-01-15T08:16:49.154Z,9.7
2023-01-15T08:17:49.336Z,9.7
2023-01-15T08:18:49.550Z,9.7
2023-01-15T08:19:49.727Z,9.7
2023-01-15T08:20:49.936Z,9.7
2023-01-15T08:21:50.120Z,9.7
2023-01-15T08:22:50.307Z,9.7
2023-01-15T08:23:50.478Z,9.7
2023-01-15T08:24:50.665Z,9.7
2023-01-15T08:25:50.844Z,9.7
2023-01-15T08:26:51.036Z,9.7
2023-01-15T08:27:51.216Z,9.7
2023-01-15T08:28:51.369Z,9.7
2023-01-15T08:29:51.552Z,9.7
2023-01-15T08:30:51.713Z,9.7
2023-01-15T08:31:52.075Z,9.7
2023-01-15T08:32:52.419Z,9.7
2023-01-15T08:33:52.597Z,9.7
2023-01-15T08:34:52.881Z,9.7
2023-01-15T08:35:53.071Z,9.7
2023-01-15T08:36:53.250Z,9.7
2023-01-15T08:37:53.441Z,9.7
2023-01-15T08:38:53.611Z,9.7
2023-01-15T08:39:53.778Z,9.7
2023-01-15T08:40:53.948Z,9.7
2023-01-15T08:41:54.123Z,9.7
2023-01-15T08:42:56.769Z,9.7
2023-01-15T08:43:56.946Z,9.5
2023-01-15T08:44:57.125Z,9.5
2023-01-15T08:45:57.384Z,9.5
2023-01-15T08:46:57.687Z,9.5
2023-01-15T08:47:57.916Z,9.5
2023-01-15T08:48:58.121Z,9.5
2023-01-15T08:49:58.295Z,9.5
2023-01-15T08:50:58.466Z,9.5
2023-01-15T08:51:58.659Z,9.5
2023-01-15T08:52:58.877Z,9.5
2023-01-15T08:53:59.053Z,9.2
2023-01-15T08:54:59.236Z,9.2
2023-01-15T08:55:59.435Z,9.2
2023-01-15T08:56:59.614Z,9.2
2023-01-15T08:57:59.789Z,9.2
2023-01-15T08:58:59.961Z,9.2
2023-01-15T09:00:00.202Z,9.2
2023-01-15T09:01:00.591Z,9.2
2023-01-15T09:02:01.289Z,9.2
2023-01-15T09:03:01.626Z,9.2
2023-01-15T09:04:01.804Z,8.6
2023-01-15T09:05:02.154Z,8.6
2023-01-15T09:06:02.401Z,8.6
2023-01-15T09:07:02.714Z,8.6
2023-01-15T09:08:02.985Z,8.6
2023-01-15T09:09:03.173Z,8.6
2023-01-15T09:10:03.361Z,8.6
2023-01-15T09:11:03.535Z,8.6
2023-01-15T09:12:03.719Z,8.6
2023-01-15T09:13:03.908Z,8.6
2023-01-15T09:14:04.101Z,8
2023-01-15T09:15:04.292Z,8
2023-01-15T09:16:04.486Z,8
2023-01-15T09:17:04.716Z,8
2023-01-15T09:18:04.898Z,8
2023-01-15T09:19:05.063Z,8
2023-01-15T09:20:05.233Z,8
2023-01-15T09:21:05.487Z,8
2023-01-15T09:22:05.677Z,8
2023-01-15T09:23:05.849Z,8
2023-01-15T09:24:06.029Z,7.5
2023-01-15T09:25:06.209Z,7.5
2023-01-15T09:26:06.382Z,7.5
2023-01-15T09:27:06.566Z,7.5
2023-01-15T09:28:06.726Z,7.5
2023-01-15T09:29:06.902Z,7.5
2023-01-15T09:30:07.123Z,7.5
2023-01-15T09:31:07.557Z,7.5
2023-01-15T09:32:07.811Z,7.5
2023-01-15T09:33:07.978Z,7.5
2023-01-15T09:34:08.149Z,6.9
2023-01-15T09:35:08.332Z,6.9
2023-01-15T09:36:08.493Z,6.9
2023-01-15T09:37:08.673Z,6.9
2023-01-15T09:38:08.848Z,6.9
2023-01-15T09:39:09.026Z,6.9
2023-01-15T09:40:09.252Z,6.9
2023-01-15T09:41:09.447Z,6.9
2023-01-15T09:42:09.630Z,6.9
2023-01-15T09:43:09.795Z,6.9
2023-01-15T09:44:09.986Z,6.5
2023-01-15T09:45:10.150Z,6.5
2023-01-15T09:46:10.389Z,6.5
2023-01-15T09:47:10.628Z,6.5
2023-01-15T09:48:10.794Z,6.5
2023-01-15T09:49:10.972Z,6.5
2023-01-15T09:50:11.166Z,6.5
2023-01-15T09:51:11.348Z,6.5
2023-01-15T09:52:11.517Z,6.5
2023-01-15T09:53:11.707Z,6.5
2023-01-15T09:54:11.877Z,6.1
2023-01-15T09:55:12.062Z,6.1
2023-01-15T09:56:12.234Z,6.1
2023-01-15T09:57:12.412Z,6.1
2023-01-15T09:58:12.609Z,6.1
2023-01-15T09:59:12.789Z,6.1
2023-01-15T10:00:12.959Z,6.1
2023-01-15T10:01:13.287Z,6.1
2023-01-15T10:02:13.605Z,6.1
2023-01-15T10:03:13.859Z,6.1
2023-01-15T10:04:14.177Z,5.7
2023-01-15T10:05:14.547Z,5.7
2023-01-15T10:06:14.736Z,5.7
2023-01-15T10:07:14.913Z,5.7
2023-01-15T10:08:15.089Z,5.7
2023-01-15T10:09:15.262Z,5.7
2023-01-15T10:10:18.429Z,5.7
2023-01-15T10:11:18.630Z,5.5
2023-01-15T10:12:18.828Z,5.5
2023-01-15T10:13:19.022Z,5.5
2023-01-15T10:14:19.193Z,5.4
2023-01-15T10:15:19.360Z,5.4
2023-01-15T10:16:19.539Z,5.4
2023-01-15T10:17:19.783Z,5.4
2023-01-15T10:18:19.964Z,5.4
2023-01-15T10:19:20.148Z,5.4
2023-01-15T10:20:20.325Z,5.4
2023-01-15T10:21:20.509Z,5.4
2023-01-15T10:22:20.708Z,5.4
2023-01-15T10:23:20.885Z,5.4
2023-01-15T10:24:21.070Z,5
2023-01-15T10:25:21.243Z,5
2023-01-15T10:26:21.417Z,5
2023-01-15T10:27:21.577Z,5
2023-01-15T10:28:21.830Z,5
2023-01-15T10:29:22.188Z,5
2023-01-15T10:30:22.375Z,5
2023-01-15T10:31:22.701Z,5
2023-01-15T10:32:22.902Z,5
2023-01-15T10:33:23.064Z,5
2023-01-15T10:34:23.229Z,4.8
2023-01-15T10:35:23.403Z,4.8
2023-01-15T10:36:23.569Z,4.8
2023-01-15T10:37:23.787Z,4.8
2023-01-15T10:38:23.968Z,4.8
2023-01-15T10:39:24.136Z,4.8
2023-01-15T10:40:24.317Z,4.8
2023-01-15T10:41:24.484Z,4.8
2023-01-15T10:42:24.651Z,4.8
2023-01-15T10:43:24.828Z,4.8
2023-01-15T10:44:25.018Z,4.5
2023-01-15T10:45:25.207Z,4.5
2023-01-15T10:46:25.503Z,4.5
2023-01-15T10:47:25.708Z,4.5
2023-01-15T10:48:25.933Z,4.5
2023-01-15T10:49:26.118Z,4.5
2023-01-15T10:50:26.295Z,4.5
2023-01-15T10:51:26.466Z,4.5
2023-01-15T10:52:26.647Z,4.5
2023-01-15T10:53:26.811Z,4.5
2023-01-15T10:54:26.981Z,4.4
2023-01-15T10:55:27.182Z,4.4
2023-01-15T10:56:27.364Z,4.4
2023-01-15T10:57:27.546Z,4.4
2023-01-15T10:58:27.721Z,4.4
2023-01-15T10:59:27.915Z,4.4
2023-01-15T11:00:28.080Z,4.4
2023-01-15T11:01:28.667Z,4.4
2023-01-15T11:02:29.517Z,4.4
2023-01-15T11:03:29.968Z,4.4
2023-01-15T11:04:30.147Z,4.19
2023-01-15T11:05:30.315Z,4.19
2023-01-15T11:06:30.480Z,4.19
2023-01-15T11:07:30.858Z,4.19
2023-01-15T11:09:12.337Z,4.19
2023-01-15T11:10:12.750Z,4.1
2023-01-15T11:11:12.927Z,4.1
2023-01-15T11:12:13.125Z,4.1
2023-01-15T11:13:13.453Z,4.1
2023-01-15T11:14:13.630Z,4
2023-01-15T11:15:13.800Z,4
2023-01-15T11:16:14.064Z,4
2023-01-15T11:17:14.323Z,4
2023-01-15T11:18:14.487Z,4
2023-01-15T11:19:14.658Z,4
2023-01-15T11:20:14.839Z,4
2023-01-15T11:21:15.012Z,4
2023-01-15T11:22:15.186Z,4
2023-01-15T11:23:15.348Z,4
2023-01-15T11:24:15.560Z,3.8
2023-01-15T11:25:15.755Z,3.8
2023-01-15T11:26:15.937Z,3.8
2023-01-15T11:27:16.113Z,3.8
2023-01-15T11:28:16.288Z,3.8
2023-01-15T11:29:16.491Z,3.8
2023-01-15T11:30:16.733Z,3.8
2023-01-15T11:31:17.031Z,3.8
2023-01-15T11:32:17.288Z,3.8
2023-01-15T11:33:17.470Z,3.8
2023-01-15T11:34:17.642Z,3.6
2023-01-15T11:35:17.838Z,3.6
2023-01-15T11:36:18.015Z,3.6
2023-01-15T11:37:18.194Z,3.6
2023-01-15T11:38:18.367Z,3.6
2023-01-15T11:39:18.534Z,3.6
2023-01-15T11:40:18.721Z,3.6
2023-01-15T11:41:18.899Z,3.6
2023-01-15T11:42:19.072Z,3.6
2023-01-15T11:43:19.267Z,3.6
2023-01-15T11:44:19.436Z,3.3
2023-01-15T11:45:19.629Z,3.3
2023-01-15T11:46:19.879Z,3.3
2023-01-15T11:47:20.133Z,3.3
2023-01-15T11:48:20.303Z,3.3
2023-01-15T11:49:20.490Z,3.3
2023-01-15T11:50:20.663Z,3.3
2023-01-15T11:51:20.821Z,3.3
2023-01-15T11:52:20.983Z,3.3
2023-01-15T11:53:21.188Z,3.3
2023-01-15T11:54:21.359Z,3.1
2023-01-15T11:55:21.559Z,3.1
2023-01-15T11:56:21.746Z,3.1
2023-01-15T11:57:21.916Z,3.1
2023-01-15T11:58:22.109Z,3.1
2023-01-15T11:59:22.300Z,3.1
2023-01-15T12:00:22.569Z,3.1
2023-01-15T12:01:22.894Z,3.1
2023-01-15T12:02:23.142Z,3.1
2023-01-15T12:03:23.406Z,3.1
2023-01-15T12:04:23.929Z,3
2023-01-15T12:05:24.416Z,3
2023-01-15T12:06:24.609Z,3
2023-01-15T12:07:24.791Z,3
2023-01-15T12:08:24.964Z,3
2023-01-15T12:09:25.162Z,3
2023-01-15T12:10:25.321Z,3
2023-01-15T12:11:27.520Z,3
2023-01-15T12:12:27.751Z,3
2023-01-15T12:13:28.055Z,3
2023-01-15T12:14:28.231Z,2.8
2023-01-15T12:15:28.396Z,2.8
2023-01-15T12:16:28.667Z,2.8
2023-01-15T12:17:28.926Z,2.8
2023-01-15T12:18:29.109Z,2.8
2023-01-15T12:19:29.301Z,2.8
2023-01-15T12:20:29.482Z,2.8
2023-01-15T12:21:29.677Z,2.8
2023-01-15T12:22:29.860Z,2.8
2023-01-15T12:23:30.042Z,2.8
2023-01-15T12:24:30.223Z,2.6
2023-01-15T12:25:30.406Z,2.6
2023-01-15T12:26:30.598Z,2.6
2023-01-15T12:27:30.789Z,2.6
2023-01-15T12:28:30.966Z,2.6
2023-01-15T12:29:31.140Z,2.6
2023-01-15T12:30:31.306Z,2.6
2023-01-15T12:31:31.576Z,2.6
2023-01-15T12:32:31.860Z,2.6
2023-01-15T12:33:32.139Z,2.6
2023-01-15T12:34:32.314Z,2.5
2023-01-15T12:35:32.530Z,2.5
2023-01-15T12:36:32.721Z,2.5
2023-01-15T12:37:32.924Z,2.5
2023-01-15T12:38:33.100Z,2.5
2023-01-15T12:39:33.271Z,2.5
2023-01-15T12:40:33.454Z,2.5
2023-01-15T12:41:33.640Z,2.5
2023-01-15T12:42:33.810Z,2.5
2023-01-15T12:43:34.009Z,2.5
2023-01-15T12:44:34.166Z,2.4
2023-01-15T12:45:34.349Z,2.4
2023-01-15T12:46:34.617Z,2.4
2023-01-15T12:47:34.869Z,2.4
2023-01-15T12:48:35.043Z,2.4
2023-01-15T12:49:35.221Z,2.4
2023-01-15T12:50:35.397Z,2.4
2023-01-15T12:51:35.573Z,2.4
2023-01-15T12:52:35.742Z,2.4
2023-01-15T12:53:35.918Z,2.4
2023-01-15T12:54:36.080Z,2.2
2023-01-15T12:55:36.252Z,2.2
2023-01-15T12:56:36.425Z,2.2
2023-01-15T12:57:36.637Z,2.2
2023-01-15T12:58:36.846Z,2.2
2023-01-15T12:59:37.026Z,2.2
2023-01-15T13:00:37.282Z,2.2
2023-01-15T13:01:37.890Z,2.2
2023-01-15T13:02:38.595Z,2.2
2023-01-15T13:03:38.927Z,2.2
2023-01-15T13:04:39.091Z,2.09
2023-01-15T13:05:39.291Z,2.09
2023-01-15T13:06:39.466Z,2.09
2023-01-15T13:07:39.634Z,2.09
2023-01-15T13:08:39.795Z,2.09
2023-01-15T13:09:39.962Z,2.09
2023-01-15T13:10:40.132Z,2.09
2023-01-15T13:11:40.305Z,2.09
2023-01-15T13:12:40.474Z,2.09
2023-01-15T13:13:40.643Z,2.09
2023-01-15T13:14:40.841Z,2
2023-01-15T13:15:41.047Z,2
2023-01-15T13:16:41.207Z,2
2023-01-15T13:17:41.376Z,2
2023-01-15T13:18:41.540Z,2
2023-01-15T13:19:41.703Z,2
2023-01-15T13:20:41.908Z,2
2023-01-15T13:21:42.089Z,2
2023-01-15T13:22:42.261Z,2
2023-01-15T13:23:42.442Z,2
2023-01-15T13:24:42.614Z,1.9
2023-01-15T13:25:42.862Z,1.9
2023-01-15T13:26:43.031Z,1.9
2023-01-15T13:27:43.291Z,1.9
2023-01-15T13:28:43.494Z,1.9
2023-01-15T13:29:43.760Z,1.9
2023-01-15T13:30:47.641Z,1.9
2023-01-15T13:31:48.167Z,1.9
2023-01-15T13:32:48.532Z,1.9
2023-01-15T13:33:48.868Z,1.9
2023-01-15T13:34:49.067Z,1.9
2023-01-15T13:35:49.267Z,1.9
2023-01-15T13:36:49.445Z,1.9
2023-01-15T13:37:49.622Z,1.9
2023-01-15T13:38:49.790Z,1.9
2023-01-15T13:39:49.954Z,1.9
2023-01-15T13:40:50.158Z,1.9
2023-01-15T13:41:50.425Z,1.9
2023-01-15T13:42:50.602Z,1.9
2023-01-15T13:43:50.787Z,2.09
2023-01-15T13:44:50.962Z,2.09
2023-01-15T13:45:51.248Z,2.09
2023-01-15T13:46:51.478Z,2.09
2023-01-15T13:47:51.647Z,2.09
2023-01-15T13:48:51.827Z,2.09
2023-01-15T13:49:51.999Z,2.09
2023-01-15T13:50:52.183Z,2.09
2023-01-15T13:51:52.365Z,2.09